Charter Quote
Worldwide +1-877-727-2538 Call
Select Language Lang
SAFETY RELIABILITY EXPERIENCE

Private Jet Charter Services - Fassberg Airport (ETHS)

Paramount Business Jets offers private jet charter flights and luxury airliner charters to and from Fassberg Airport.

AIRPORT INFORMATION
ICAOETHS
LOCATIONFassberg, Germany
FACILITY TYPEAIRPORT
Runway Length (ft) Width (ft) Surface Type Elevation (ft)
27/09 8005 95 ASP 244.85246
27R/09L 3281 164 GRS 244.85246
24/06 1312 148 GRS 244.85246

At Paramount Business Jets you can hire chartered private jets to and from Fassberg Airport with as little as 4 hours of notice. All flights booked via Paramount Business Jets are operated by certified direct air carriers that meet and exceed the FAA part 135 and 121 protocol or a foreign equivalent safety authority. Furthermore, Paramount Business Jets subscribes to ARGUS for their third party safety checks of operators, aircraft, and crews prior each and every flight to and from Fassberg Airport and worldwide.

  • Quote a trip using Fassberg Airport or call us 24/7 - 365 days a year at +1-877-727-2538.
Questions? Call +1-877-727-2538

METAR Weather Data at Fassberg Airport, ETHS

STATIONETHS
OBSERVEDSat Oct 19, 02:20 UTC
NOWSat Oct 19, 02:55 UTC
AGE35 min ago
WINDSSW at 7 mph
VISIBILITY16 miles
METARETHS 190220Z AUTO 20006KT 9999 // ////// 09/06 Q1008 ///

Call us on +1-877-727-2538 (24 Hours) to Hire a Private Jet or Get a Quick Quote.

Find Airports Near any Location

Processing
...